Time;durP1;ratioP1;P1;durP2;ratioP2;P2;SDS_P1;SDS_P2;PMS_P1;PMS_P2;Temp;Humidity;BMP_temperature;BMP_pressure;BME280_temperature;BME280_humidity;BME280_pressure;Samples;Min_cycle;Max_cycle;Signal;HPM_P1;HPM_P2
2022/02/08 00:02:13;;;;;;;14.02;5.47;;;6.30;72.70;;;;;;6203709;28;20527;-82
2022/02/08 00:05:18;;;;;;;15.95;1.83;;;6.30;72.60;;;;;;6205537;28;20061;-82
2022/02/08 00:08:20;;;;;;;5.57;1.83;;;6.20;72.20;;;;;;6209259;28;20057;-82
2022/02/08 00:11:21;;;;;;;7.13;1.40;;;6.10;72.10;;;;;;6209595;28;20058;-82
2022/02/08 00:14:23;;;;;;;3.17;1.05;;;6.10;72.30;;;;;;6209597;28;20046;-82
2022/02/08 00:17:25;;;;;;;12.75;1.98;;;6.10;72.20;;;;;;6209262;28;20415;-81
2022/02/08 00:20:28;;;;;;;4.95;1.25;;;6.10;72.30;;;;;;6208767;28;20050;-81
2022/02/08 00:23:30;;;;;;;8.43;1.55;;;6.20;72.20;;;;;;6210948;28;20052;-81
2022/02/08 00:26:31;;;;;;;4.15;1.17;;;6.20;72.20;;;;;;6209169;28;20047;-81
2022/02/08 00:29:33;;;;;;;5.10;1.23;;;6.20;72.00;;;;;;6209748;28;20061;-81
2022/02/08 00:32:35;;;;;;;3.35;1.42;;;6.20;71.80;;;;;;6210395;28;20135;-81
2022/02/08 00:35:38;;;;;;;2.63;1.10;;;6.30;71.90;;;;;;6208044;28;20163;-81
2022/02/08 00:38:40;;;;;;;7.38;1.50;;;6.30;72.10;;;;;;6193199;28;20505;-81
2022/02/08 00:41:42;;;;;;;11.40;1.40;;;6.30;72.10;;;;;;6184302;28;20047;-81
2022/02/08 00:44:48;;;;;;;8.32;1.75;;;6.30;72.00;;;;;;6184950;28;20058;-81
2022/02/08 00:47:55;;;;;;;9.25;2.20;;;6.30;72.00;;;;;;6184495;28;20419;-81
2022/02/08 00:50:58;;;;;;;5.55;1.95;;;6.30;72.20;;;;;;6184147;28;20058;-81
2022/02/08 00:54:00;;;;;;;8.82;1.58;;;6.30;72.10;;;;;;6183738;28;20125;-81
2022/02/08 00:57:01;;;;;;;5.68;1.42;;;6.20;72.40;;;;;;6184584;28;20047;-81
2022/02/08 01:00:06;;;;;;;6.97;2.17;;;6.20;72.30;;;;;;6184700;28;20844;-81
2022/02/08 01:03:09;;;;;;;2.65;1.15;;;6.20;72.50;;;;;;6184331;28;20415;-81
2022/02/08 01:06:12;;;;;;;10.95;1.42;;;6.10;72.70;;;;;;6183804;28;20055;-81
2022/02/08 01:09:17;;;;;;;5.15;1.60;;;6.00;72.70;;;;;;6183748;28;20137;-81
2022/02/08 01:12:19;;;;;;;10.80;1.85;;;6.00;73.00;;;;;;6185252;28;20053;-81
2022/02/08 01:15:21;;;;;;;8.90;1.73;;;6.00;73.10;;;;;;6183524;28;20078;-81
2022/02/08 01:18:23;;;;;;;3.63;1.63;;;6.00;73.10;;;;;;6186082;28;20058;-83
2022/02/08 01:21:26;;;;;;;6.03;1.60;;;5.90;73.30;;;;;;6189926;28;20101;-81
2022/02/08 01:24:28;;;;;;;6.50;1.42;;;5.80;73.70;;;;;;6189037;28;20059;-81
2022/02/08 01:27:32;;;;;;;7.95;3.33;;;5.70;73.90;;;;;;6186626;28;20039;-81
2022/02/08 01:30:45;;;;;;;6.57;1.40;;;5.60;74.00;;;;;;6186857;28;20050;-81
2022/02/08 01:37:07;;;;;;;9.98;1.75;;;5.50;74.60;;;;;;6192681;28;20399;-80
2022/02/08 01:40:18;;;;;;;9.15;2.30;;;5.50;74.70;;;;;;6192293;28;20051;-81
2022/02/08 01:43:42;;;;;;;12.73;1.38;;;5.40;74.90;;;;;;6188174;28;20047;-81
2022/02/08 01:46:59;;;;;;;6.10;1.92;;;5.40;75.20;;;;;;6188361;28;20054;-82
2022/02/08 01:50:11;;;;;;;4.07;1.23;;;5.30;75.40;;;;;;6189957;28;20591;-82
2022/02/08 01:53:14;;;;;;;8.23;1.88;;;5.20;75.50;;;;;;6191407;28;20310;-82
2022/02/08 01:56:16;;;;;;;2.00;1.00;;;5.20;75.90;;;;;;6191349;28;20061;-83
2022/02/08 01:59:19;;;;;;;7.13;1.60;;;5.10;76.00;;;;;;6191269;28;20111;-82
2022/02/08 02:02:21;;;;;;;6.03;1.70;;;5.00;76.40;;;;;;6192044;28;20046;-81
2022/02/08 02:05:22;;;;;;;4.60;1.42;;;4.90;76.50;;;;;;6190460;28;20062;-81
2022/02/08 02:08:26;;;;;;;5.03;1.20;;;4.90;76.80;;;;;;6191047;28;20102;-81
2022/02/08 02:11:27;;;;;;;7.65;1.85;;;4.90;76.90;;;;;;6188075;28;20755;-80
2022/02/08 02:14:36;;;;;;;6.82;1.65;;;4.90;77.10;;;;;;6187508;28;20074;-81
2022/02/08 02:17:38;;;;;;;2.47;1.33;;;4.90;77.00;;;;;;6191156;28;20051;-81
2022/02/08 02:20:39;;;;;;;10.57;2.30;;;4.80;77.00;;;;;;6191322;28;20110;-81
2022/02/08 02:23:49;;;;;;;2.95;0.98;;;4.80;77.30;;;;;;6186510;28;20057;-81
2022/02/08 02:26:51;;;;;;;13.43;1.67;;;4.80;77.50;;;;;;6189318;28;20122;-82
2022/02/08 02:29:53;;;;;;;8.88;1.20;;;4.80;77.50;;;;;;6191405;28;20070;-81
2022/02/08 02:32:54;;;;;;;8.10;1.52;;;4.80;77.30;;;;;;6190518;28;20054;-81
2022/02/08 02:35:56;;;;;;;9.32;0.77;;;4.90;77.00;;;;;;6187006;28;20051;-81
2022/02/08 02:39:00;;;;;;;6.38;1.85;;;5.10;76.60;;;;;;6193365;28;20043;-81
2022/02/08 02:42:02;;;;;;;5.47;1.95;;;5.20;76.10;;;;;;6211683;28;20536;-82
2022/02/08 02:45:06;;;;;;;4.60;1.08;;;5.40;75.40;;;;;;6211920;28;20054;-83
2022/02/08 02:48:07;;;;;;;4.10;0.80;;;5.50;74.90;;;;;;6203797;28;20039;-81
2022/02/08 02:51:14;;;;;;;4.07;1.05;;;5.60;74.60;;;;;;6186951;28;20057;-80
2022/02/08 02:54:19;;;;;;;4.63;1.10;;;5.80;74.10;;;;;;6189158;28;20099;-81
2022/02/08 02:57:24;;;;;;;6.18;1.00;;;5.80;73.50;;;;;;6188502;28;20042;-82
2022/02/08 03:00:34;;;;;;;10.27;1.27;;;5.90;73.20;;;;;;6189935;28;20061;-81
2022/02/08 03:03:48;;;;;;;7.50;1.60;;;6.00;73.10;;;;;;6187825;28;20058;-80
2022/02/08 03:20:10;;;;;;;2.15;0.60;;;6.30;71.70;;;;;;6184816;28;20047;-82
2022/02/08 03:23:12;;;;;;;4.80;1.05;;;6.40;72.40;;;;;;6183935;28;20057;-82
2022/02/08 03:26:15;;;;;;;4.13;0.75;;;6.50;71.20;;;;;;6182798;28;20133;-82
2022/02/08 03:29:17;;;;;;;10.18;2.47;;;6.50;71.10;;;;;;6183190;28;20186;-81
2022/02/08 03:32:20;;;;;;;11.68;2.40;;;6.50;71.10;;;;;;6183166;28;20142;-81
2022/02/08 03:35:22;;;;;;;2.78;1.02;;;6.60;71.00;;;;;;6182901;28;20062;-80
2022/02/08 03:38:30;;;;;;;6.85;1.17;;;6.60;70.30;;;;;;6186480;28;20043;-82
2022/02/08 03:41:40;;;;;;;5.68;1.25;;;6.60;70.00;;;;;;6206847;28;20106;-83
2022/02/08 03:44:45;;;;;;;7.45;1.40;;;6.60;70.10;;;;;;6207108;28;20136;-80
2022/02/08 03:47:47;;;;;;;4.47;1.02;;;6.60;69.70;;;;;;6208174;28;20085;-80
2022/02/08 03:50:53;;;;;;;6.05;1.60;;;6.70;69.80;;;;;;6208192;28;20050;-81
2022/02/08 03:53:54;;;;;;;3.53;1.50;;;6.70;70.30;;;;;;6207342;28;20054;-83
2022/02/08 03:56:57;;;;;;;13.45;1.77;;;6.70;70.40;;;;;;6207569;28;20132;-80
2022/02/08 03:59:59;;;;;;;13.32;1.27;;;6.80;70.50;;;;;;6207505;28;20480;-80
2022/02/08 04:03:01;;;;;;;9.75;1.15;;;6.80;69.90;;;;;;6207056;28;20065;-81
2022/02/08 04:06:04;;;;;;;4.43;0.85;;;6.80;70.00;;;;;;6206736;28;20124;-82
2022/02/08 04:09:08;;;;;;;10.02;3.13;;;6.90;70.40;;;;;;6207251;28;20074;-81
2022/02/08 04:12:18;;;;;;;9.23;1.15;;;6.90;71.30;;;;;;6206825;28;20389;-82
2022/02/08 04:15:43;;;;;;;6.05;1.23;;;6.90;72.40;;;;;;6208361;28;20126;-81
2022/02/08 04:18:54;;;;;;;7.63;0.80;;;6.90;71.50;;;;;;6206363;28;20061;-81
2022/02/08 04:32:14;;;;;;;7.80;1.30;;;6.90;71.30;;;;;;6209577;28;20055;-80
2022/02/08 04:38:47;;;;;;;10.90;1.60;;;7.00;70.90;;;;;;6209772;28;20050;-81
2022/02/08 04:42:00;;;;;;;8.48;2.40;;;7.10;70.70;;;;;;6193211;28;20062;-81
2022/02/08 04:45:12;;;;;;;5.28;0.50;;;7.10;70.40;;;;;;6183263;28;20105;-81
2022/02/08 04:48:26;;;;;;;11.43;1.02;;;7.10;69.40;;;;;;6183622;28;20047;-80
2022/02/08 04:51:33;;;;;;;4.57;0.90;;;7.10;69.50;;;;;;6184899;28;20050;-81
2022/02/08 04:54:43;;;;;;;6.03;1.33;;;7.20;69.20;;;;;;6188508;28;20664;-81
2022/02/08 04:57:51;;;;;;;7.80;1.27;;;7.20;69.10;;;;;;6188717;28;20074;-81
2022/02/08 05:01:08;;;;;;;6.10;1.40;;;7.20;68.90;;;;;;6189079;28;20054;-81
2022/02/08 05:34:34;;;;;;;8.82;1.33;;;7.30;67.80;;;;;;6188610;28;20479;-81
2022/02/08 05:40:38;;;;;;;13.35;1.48;;;7.30;67.70;;;;;;6189440;28;20106;-82
2022/02/08 05:41:40;;;;;;;7.63;1.30;;;7.30;67.90;;;;;;6195103;28;20544;-81
2022/02/08 05:44:45;;;;;;;23.08;2.58;;;7.30;67.60;;;;;;6210722;28;20081;-82
2022/02/08 05:47:49;;;;;;;6.65;1.00;;;7.40;67.60;;;;;;6214009;28;20046;-81
2022/02/08 05:50:59;;;;;;;7.53;1.80;;;7.40;67.60;;;;;;6214363;28;20060;-83
2022/02/08 05:54:01;;;;;;;8.80;1.73;;;7.40;67.60;;;;;;6215271;28;20050;-82
2022/02/08 05:57:03;;;;;;;3.28;0.85;;;7.40;67.30;;;;;;6216458;28;20113;-82
2022/02/08 06:00:06;;;;;;;3.63;1.55;;;7.40;67.60;;;;;;6216012;28;20056;-82
2022/02/08 06:03:08;;;;;;;8.82;1.15;;;7.30;67.80;;;;;;6213951;28;20465;-81
2022/02/08 06:06:11;;;;;;;5.25;0.82;;;7.40;67.70;;;;;;6213020;28;20145;-83
2022/02/08 06:09:13;;;;;;;7.45;0.98;;;7.40;67.60;;;;;;6213506;28;20056;-82
2022/02/08 06:12:15;;;;;;;6.28;2.53;;;7.40;67.30;;;;;;6214619;28;20560;-82
2022/02/08 06:15:19;;;;;;;4.95;0.93;;;7.40;67.10;;;;;;6209205;28;20057;-81
2022/02/08 06:18:21;;;;;;;7.15;1.42;;;7.30;67.30;;;;;;6208683;28;20047;-81
2022/02/08 06:21:24;;;;;;;5.38;1.02;;;7.30;67.40;;;;;;6209982;28;20061;-82
2022/02/08 06:24:26;;;;;;;5.03;1.70;;;7.30;67.50;;;;;;6210783;28;20382;-82
2022/02/08 06:27:29;;;;;;;4.40;1.15;;;7.30;67.70;;;;;;6210620;28;20042;-82
2022/02/08 06:30:30;;;;;;;3.03;0.75;;;7.30;67.80;;;;;;6212042;28;20052;-82
2022/02/08 06:33:32;;;;;;;5.72;1.10;;;7.30;67.90;;;;;;6210263;28;20066;-82
2022/02/08 06:36:36;;;;;;;8.63;1.70;;;7.40;68.10;;;;;;6209570;28;20073;-81
2022/02/08 06:39:38;;;;;;;10.88;1.35;;;7.50;68.30;;;;;;6211697;28;20102;-82
2022/02/08 06:42:42;;;;;;;8.48;1.20;;;7.50;68.30;;;;;;6206542;28;20043;-82
2022/02/08 06:45:44;;;;;;;8.05;1.67;;;7.50;68.10;;;;;;6211059;28;20095;-81
2022/02/08 06:48:46;;;;;;;9.80;1.67;;;7.60;68.00;;;;;;6208318;28;20069;-82
2022/02/08 06:51:49;;;;;;;10.30;1.15;;;7.60;68.00;;;;;;6207227;28;20052;-81
2022/02/08 06:54:51;;;;;;;9.68;1.20;;;7.60;67.60;;;;;;6208602;28;20052;-81
2022/02/08 06:58:01;;;;;;;7.85;1.45;;;7.60;67.80;;;;;;6208141;28;20065;-82
2022/02/08 07:01:04;;;;;;;3.30;0.93;;;7.60;68.00;;;;;;6210364;28;20524;-82
2022/02/08 07:04:09;;;;;;;4.90;0.70;;;7.70;68.00;;;;;;6211421;28;20076;-82
2022/02/08 07:07:15;;;;;;;6.38;1.77;;;7.70;67.60;;;;;;6209849;28;20046;-81
2022/02/08 07:10:17;;;;;;;3.42;1.15;;;7.70;67.80;;;;;;6209907;28;20046;-81
2022/02/08 07:13:19;;;;;;;12.85;1.98;;;7.80;67.80;;;;;;6208055;28;20066;-81
2022/02/08 07:16:21;;;;;;;6.78;1.23;;;7.80;67.80;;;;;;6220561;23;20062;-80
2022/02/08 07:19:23;;;;;;;6.45;1.25;;;7.80;67.70;;;;;;6152068;28;20058;-80
2022/02/08 07:22:26;;;;;;;4.40;0.75;;;7.80;67.60;;;;;;6152057;28;20496;-80
2022/02/08 07:25:28;;;;;;;7.57;2.03;;;7.90;67.80;;;;;;6151366;28;20062;-81
2022/02/08 07:28:30;;;;;;;7.18;1.35;;;7.90;67.40;;;;;;6153024;29;20505;-81
2022/02/08 07:31:38;;;;;;;6.63;1.25;;;8.00;67.30;;;;;;6152766;28;20182;-81
2022/02/08 07:34:47;;;;;;;;;;;8.10;67.00;;;;;;6138903;28;20052;-80
2022/02/08 07:37:56;;;;;;;7.25;1.50;;;8.20;66.50;;;;;;6128560;29;19922;-80
2022/02/08 07:44:17;;;;;;;4.35;1.02;;;8.40;66.40;;;;;;6127449;29;20051;-81
2022/02/08 07:47:19;;;;;;;3.88;1.27;;;8.50;65.60;;;;;;6127872;29;20073;-81
2022/02/08 07:50:21;;;;;;;9.68;2.15;;;8.40;65.30;;;;;;6128277;29;20102;-81
2022/02/08 07:53:27;;;;;;;8.00;1.70;;;8.40;65.50;;;;;;6118010;29;20405;-81
2022/02/08 07:56:29;;;;;;;8.63;1.42;;;8.50;66.00;;;;;;6127357;29;20087;-81
2022/02/08 07:59:31;;;;;;;7.70;1.13;;;8.50;65.00;;;;;;6128524;29;20071;-80
2022/02/08 08:02:35;;;;;;;7.22;1.40;;;8.50;64.60;;;;;;6127709;29;20509;-82
2022/02/08 08:05:37;;;;;;;10.82;1.10;;;8.40;65.10;;;;;;6127329;29;20048;-80
2022/02/08 08:08:41;;;;;;;5.60;1.10;;;8.40;64.50;;;;;;6123114;29;20210;-81
2022/02/08 08:11:44;;;;;;;4.40;1.30;;;8.40;64.50;;;;;;6132127;28;20424;-80
2022/02/08 08:14:46;;;;;;;2.80;0.80;;;8.40;64.60;;;;;;6131280;29;20047;-80
2022/02/08 08:17:57;;;;;;;7.25;2.78;;;8.50;64.30;;;;;;6127739;29;20082;-81
2022/02/08 08:20:58;;;;;;;3.97;0.95;;;8.60;65.00;;;;;;6128459;29;20054;-81
2022/02/08 08:24:03;;;;;;;4.65;0.85;;;8.60;63.60;;;;;;6138334;29;20052;-80
2022/02/08 08:27:05;;;;;;;4.78;0.65;;;8.60;63.70;;;;;;6142728;29;20055;-79
2022/02/08 08:30:09;;;;;;;6.13;1.33;;;8.60;63.10;;;;;;6134686;29;20048;-80
2022/02/08 08:33:11;;;;;;;8.02;0.95;;;8.80;63.00;;;;;;6132970;29;20059;-79
2022/02/08 08:36:14;;;;;;;4.25;1.55;;;8.90;62.60;;;;;;6132297;29;20498;-80
2022/02/08 08:39:21;;;;;;;4.82;0.95;;;9.00;62.40;;;;;;6132636;29;20043;-80
2022/02/08 08:42:35;;;;;;;3.58;0.60;;;9.10;61.80;;;;;;6132678;29;20067;-79
2022/02/08 08:49:28;;;;;;;5.60;1.10;;;9.40;60.90;;;;;;6133713;29;20044;-81
2022/02/08 08:52:34;;;;;;;10.85;2.03;;;9.60;60.70;;;;;;6132817;29;20505;-81
2022/02/08 08:55:37;;;;;;;7.70;0.85;;;9.70;59.80;;;;;;6132336;28;20070;-81
2022/02/08 08:58:44;;;;;;;2.60;0.90;;;9.70;59.40;;;;;;6132162;29;20126;-81
2022/02/08 09:01:46;;;;;;;4.85;2.40;;;9.80;59.10;;;;;;6132621;29;20505;-79
2022/02/08 09:04:49;;;;;;;3.17;0.70;;;9.90;59.00;;;;;;6133416;29;20102;-81
2022/02/08 09:07:51;;;;;;;14.00;3.65;;;10.00;58.50;;;;;;6132745;29;20430;-81
2022/02/08 09:11:05;;;;;;;6.80;1.15;;;10.10;58.30;;;;;;6134567;29;20043;-80
2022/02/08 09:14:10;;;;;;;8.55;2.17;;;10.20;57.80;;;;;;6136893;29;20402;-80
2022/02/08 09:17:41;;;;;;;5.30;1.50;;;10.40;57.40;;;;;;6130843;29;20051;-78
2022/02/08 09:24:16;;;;;;;6.72;0.88;;;11.00;56.00;;;;;;6132798;29;20060;-80
2022/02/08 09:30:42;;;;;;;4.80;1.15;;;10.70;54.90;;;;;;6131126;29;20047;-80
2022/02/08 09:33:44;;;;;;;4.10;0.65;;;10.50;55.70;;;;;;6131209;29;20127;-80
2022/02/08 09:36:46;;;;;;;2.55;0.60;;;10.50;56.00;;;;;;6131472;29;20529;-79
2022/02/08 09:39:51;;;;;;;3.30;1.00;;;10.50;55.50;;;;;;6129559;29;20047;-79
2022/02/08 09:42:56;;;;;;;5.72;1.30;;;10.40;55.40;;;;;;6130654;29;20047;-80
2022/02/08 09:46:00;;;;;;;8.00;0.98;;;10.50;55.70;;;;;;6130961;29;20048;-79
2022/02/08 09:49:03;;;;;;;2.95;0.70;;;10.50;55.30;;;;;;6130669;29;20055;-79
2022/02/08 09:52:05;;;;;;;7.85;1.38;;;10.50;55.00;;;;;;6129454;29;20047;-79
2022/02/08 09:55:07;;;;;;;7.15;1.10;;;10.60;55.20;;;;;;6128262;29;20051;-79
2022/02/08 09:58:12;;;;;;;3.92;0.80;;;10.60;55.00;;;;;;6128667;29;20058;-79
2022/02/08 10:01:18;;;;;;;3.72;0.90;;;10.60;55.60;;;;;;6129143;29;20056;-81
2022/02/08 10:04:20;;;;;;;1.85;0.98;;;10.60;55.20;;;;;;6129975;29;20200;-80
2022/02/08 10:07:23;;;;;;;4.95;1.20;;;10.70;55.50;;;;;;6128142;29;20047;-78
2022/02/08 10:10:25;;;;;;;5.50;1.27;;;10.80;55.50;;;;;;6128146;29;20498;-79
2022/02/08 10:13:57;;;;;;;4.13;1.48;;;10.80;55.40;;;;;;6128394;29;20418;-78
2022/02/08 10:23:55;;;;;;;6.00;1.40;;;11.00;55.60;;;;;;6078331;29;20503;-79
2022/02/08 10:27:03;;;;;;;3.13;0.85;;;11.20;55.50;;;;;;6128089;28;20127;-78
2022/02/08 10:30:46;;;;;;;10.68;1.33;;;11.30;55.30;;;;;;6130357;29;20062;-79
2022/02/08 10:40:35;;;;;;;10.38;0.90;;;11.50;54.70;;;;;;6131316;29;20417;-81
2022/02/08 10:43:38;;;;;;;3.90;0.90;;;11.60;54.70;;;;;;6131162;29;20051;-78
2022/02/08 10:46:41;;;;;;;11.88;1.42;;;11.70;54.60;;;;;;6129631;29;20054;-80
2022/02/08 10:49:43;;;;;;;6.68;1.23;;;11.70;54.90;;;;;;6113268;29;20519;-80
2022/02/08 10:52:46;;;;;;;8.43;1.15;;;11.70;55.40;;;;;;6131617;29;20515;-79
2022/02/08 10:56:00;;;;;;;9.23;1.75;;;11.80;55.60;;;;;;6130391;29;20050;-78
2022/02/08 10:59:15;;;;;;;6.43;0.85;;;11.80;55.10;;;;;;6125012;29;20522;-79
2022/02/08 11:02:24;;;;;;;4.43;1.52;;;11.80;55.20;;;;;;6132024;29;20059;-80
2022/02/08 11:05:37;;;;;;;6.95;1.48;;;11.80;55.40;;;;;;6132669;29;20051;-80
2022/02/08 11:09:01;;;;;;;7.57;2.08;;;11.70;55.50;;;;;;6132142;29;20505;-80
2022/02/08 11:12:12;;;;;;;8.32;1.73;;;11.60;56.40;;;;;;6153541;29;20058;-79
2022/02/08 11:15:28;;;;;;;9.23;1.40;;;11.70;57.40;;;;;;6152507;28;20043;-79
2022/02/08 11:18:38;;;;;;;10.15;2.10;;;11.70;56.80;;;;;;6153028;28;20183;-79
2022/02/08 11:21:56;;;;;;;9.05;1.33;;;11.80;56.80;;;;;;6153118;28;20055;-81
2022/02/08 11:25:07;;;;;;;11.43;1.92;;;11.90;57.00;;;;;;6151263;28;20055;-79
2022/02/08 11:28:17;;;;;;;7.60;1.52;;;12.00;57.00;;;;;;6136934;28;20058;-82
2022/02/08 11:31:24;;;;;;;7.63;1.30;;;11.80;56.90;;;;;;6129121;28;20086;-78
2022/02/08 11:45:21;;;;;;;7.97;1.35;;;12.00;59.60;;;;;;6127254;29;20051;-79
2022/02/08 11:52:15;;;;;;;10.70;1.73;;;12.10;60.50;;;;;;6126212;28;20075;-79
2022/02/08 11:55:42;;;;;;;7.30;1.33;;;12.20;60.40;;;;;;6150801;28;20465;-79
2022/02/08 11:58:55;;;;;;;11.38;1.92;;;12.20;61.00;;;;;;6150480;28;20055;-78
2022/02/08 12:05:24;;;;;;;13.18;1.42;;;11.90;62.70;;;;;;6151132;28;20098;-80
2022/02/08 12:08:27;;;;;;;2.45;1.00;;;11.80;63.70;;;;;;6151756;28;20066;-79
2022/02/08 12:11:53;;;;;;;9.25;1.75;;;11.80;63.50;;;;;;6150628;28;20049;-83
2022/02/08 12:29:14;;;;;;;9.48;1.20;;;11.70;64.40;;;;;;6151298;28;20051;-80
2022/02/08 12:49:37;;;;;;;5.38;1.35;;;11.70;67.10;;;;;;6153003;28;20055;-80
2022/02/08 12:56:08;;;;;;;11.90;1.67;;;12.10;66.70;;;;;;6148914;29;20093;-81
2022/02/08 12:59:36;;;;;;;5.45;1.77;;;12.10;66.60;;;;;;6151519;28;20575;-79
2022/02/08 13:02:48;;;;;;;4.15;1.20;;;12.30;67.10;;;;;;6152142;28;20043;-80
2022/02/08 14:03:32;;;;;;;12.18;2.80;;;12.80;67.80;;;;;;6206955;28;20170;-79
2022/02/08 14:06:50;;;;;;;4.45;1.92;;;12.70;67.50;;;;;;6196125;28;20065;-81
2022/02/08 14:10:05;;;;;;;12.07;2.33;;;12.70;68.00;;;;;;6195108;28;20193;-81
2022/02/08 14:16:45;;;;;;;8.23;1.45;;;12.80;68.00;;;;;;6197829;28;20050;-80
2022/02/08 14:19:51;;;;;;;3.70;1.75;;;12.80;68.10;;;;;;6211508;28;20073;-83
2022/02/08 14:23:09;;;;;;;14.45;2.90;;;12.90;67.90;;;;;;6209733;28;20058;-81
2022/02/08 14:29:43;;;;;;;8.93;1.42;;;13.10;67.60;;;;;;6209950;28;20046;-81
2022/02/08 14:32:54;;;;;;;6.43;1.95;;;13.40;67.20;;;;;;6209691;28;20046;-80
2022/02/08 14:36:19;;;;;;;8.65;2.15;;;13.40;66.30;;;;;;6210105;28;20050;-81
2022/02/08 15:06:09;;;;;;;15.43;5.38;;;12.30;70.10;;;;;;6201246;28;20042;-81
2022/02/08 15:09:17;;;;;;;19.90;7.63;;;12.20;70.60;;;;;;6202654;28;20056;-81
2022/02/08 15:12:22;;;;;;;28.17;11.93;;;12.10;71.00;;;;;;6201754;28;20456;-79
2022/02/08 15:15:31;;;;;;;10.20;2.30;;;12.00;71.60;;;;;;6201302;28;20133;-80
2022/02/08 15:18:37;;;;;;;10.88;3.58;;;11.90;72.10;;;;;;6201589;28;20081;-80
2022/02/08 15:21:39;;;;;;;10.30;1.77;;;11.90;72.40;;;;;;6201250;28;20061;-80
2022/02/08 15:24:41;;;;;;;9.77;2.03;;;11.80;72.30;;;;;;6201923;28;20065;-80
2022/02/08 15:27:46;;;;;;;10.43;1.83;;;11.80;72.50;;;;;;6201359;28;20058;-79
2022/02/08 15:30:48;;;;;;;3.72;1.08;;;11.80;72.50;;;;;;6200306;28;20046;-80
2022/02/08 15:33:50;;;;;;;15.23;6.57;;;11.90;72.60;;;;;;6200275;28;20057;-79
2022/02/08 15:36:52;;;;;;;8.77;2.17;;;11.90;72.40;;;;;;6200094;28;20148;-79
2022/02/08 15:39:55;;;;;;;7.45;2.13;;;11.80;72.40;;;;;;6201112;28;20057;-78
2022/02/08 15:42:58;;;;;;;18.70;10.48;;;11.80;72.60;;;;;;6201180;28;20054;-80
2022/02/08 15:46:06;;;;;;;17.23;7.55;;;11.80;72.60;;;;;;6200127;28;20077;-79
2022/02/08 15:49:07;;;;;;;67.75;32.55;;;11.80;72.50;;;;;;6202017;28;20070;-80
2022/02/08 15:52:17;;;;;;;24.17;12.00;;;11.70;72.80;;;;;;6199618;28;20125;-79
2022/02/08 15:55:32;;;;;;;36.35;15.93;;;11.70;73.00;;;;;;6198755;28;20046;-80
2022/02/08 16:05:29;;;;;;;21.83;10.02;;;11.60;73.60;;;;;;6195646;28;20050;-79
2022/02/08 16:08:36;;;;;;;28.65;11.93;;;11.60;73.70;;;;;;6201786;28;20054;-81
2022/02/08 16:15:30;;;;;;;5.72;3.00;;;11.60;73.80;;;;;;6124820;29;20538;-80
2022/02/08 16:18:39;;;;;;;25.85;5.75;;;11.60;74.00;;;;;;6125984;28;20059;-79
2022/02/08 16:22:11;;;;;;;12.90;2.75;;;11.60;73.90;;;;;;6198975;28;20431;-79
2022/02/08 16:25:18;;;;;;;12.35;2.60;;;11.60;73.90;;;;;;6198870;28;20061;-80
2022/02/08 16:28:36;;;;;;;14.75;4.18;;;11.60;73.90;;;;;;6200310;28;20046;-80
2022/02/08 16:32:10;;;;;;;11.68;2.30;;;11.60;73.80;;;;;;6201330;28;20066;-80
2022/02/08 16:55:42;;;;;;;17.13;2.30;;;11.30;74.90;;;;;;6204804;28;20054;-81
2022/02/08 16:58:51;;;;;;;13.60;2.45;;;11.30;75.00;;;;;;6208111;28;20078;-82
2022/02/08 17:01:56;;;;;;;7.80;2.42;;;11.30;75.50;;;;;;6206749;28;20114;-81
2022/02/08 17:05:00;;;;;;;8.95;2.38;;;11.20;76.00;;;;;;6207503;28;20061;-81
2022/02/08 17:08:02;;;;;;;15.60;3.60;;;11.20;75.90;;;;;;6181859;28;20417;-81
2022/02/08 17:11:04;;;;;;;14.50;3.22;;;11.30;76.60;;;;;;6201615;28;20046;-82
2022/02/08 17:17:42;;;;;;;6.13;2.15;;;11.40;76.60;;;;;;6207981;28;20515;-81
2022/02/08 17:47:41;;;;;;;12.77;2.70;;;11.30;75.80;;;;;;6203277;28;20050;-81
2022/02/08 17:50:45;;;;;;;8.13;2.05;;;11.30;76.00;;;;;;6203290;28;20042;-81
2022/02/08 17:53:48;;;;;;;4.78;2.45;;;11.20;76.10;;;;;;6203437;28;20058;-80
2022/02/08 17:56:50;;;;;;;7.75;2.70;;;11.10;76.30;;;;;;6203356;28;20051;-81
2022/02/08 17:59:54;;;;;;;15.60;3.72;;;11.10;76.80;;;;;;6202373;28;20168;-81
2022/02/08 18:02:56;;;;;;;9.73;2.08;;;11.10;77.10;;;;;;6203955;28;20050;-81
2022/02/08 18:05:57;;;;;;;4.82;2.38;;;11.10;77.30;;;;;;6202291;28;20054;-81
2022/02/08 18:09:02;;;;;;;6.00;1.75;;;11.10;77.50;;;;;;6202247;28;20056;-81
2022/02/08 18:12:05;;;;;;;9.52;2.30;;;11.10;77.70;;;;;;6202923;28;20050;-80
2022/02/08 18:15:11;;;;;;;8.55;2.10;;;11.20;78.00;;;;;;6201956;28;20046;-80
2022/02/08 18:18:21;;;;;;;9.65;3.03;;;11.20;78.20;;;;;;6201693;28;20511;-81
2022/02/08 18:21:28;;;;;;;11.38;2.65;;;11.20;78.40;;;;;;6202420;28;20631;-81
2022/02/08 18:24:50;;;;;;;8.80;2.70;;;11.20;78.60;;;;;;6202168;28;20077;-80
2022/02/08 18:28:18;;;;;;;7.18;1.65;;;11.10;78.70;;;;;;6198007;28;20061;-80
2022/02/08 19:03:21;;;;;;;2.70;1.48;;;11.00;81.40;;;;;;6201780;28;20503;-80
2022/02/08 19:15:21;;;;;;;6.55;1.02;;;11.10;81.80;;;;;;6195506;28;20353;-80
2022/02/08 19:18:41;;;;;;;2.33;0.90;;;11.10;81.70;;;;;;6204103;28;20113;-81
2022/02/08 19:21:45;;;;;;;2.35;1.08;;;11.10;81.70;;;;;;6205669;28;20057;-82
2022/02/08 19:24:47;;;;;;;3.55;0.98;;;11.20;81.80;;;;;;6207354;28;20054;-83
2022/02/08 19:27:50;;;;;;;5.95;2.10;;;11.20;81.80;;;;;;6207549;28;20508;-82
2022/02/08 19:30:53;;;;;;;3.22;0.85;;;11.10;81.90;;;;;;6209193;28;20042;-82
2022/02/08 19:34:01;;;;;;;3.20;1.02;;;11.10;82.20;;;;;;6207900;28;20054;-82
2022/02/08 19:37:06;;;;;;;1.02;0.93;;;11.10;82.40;;;;;;6210083;28;20050;-82
2022/02/08 19:40:09;;;;;;;1.60;0.73;;;11.00;82.50;;;;;;6209678;28;20129;-83
2022/02/08 19:43:11;;;;;;;3.95;1.10;;;11.00;82.70;;;;;;6212922;28;20442;-83
2022/02/08 19:46:15;;;;;;;3.13;1.10;;;10.90;82.90;;;;;;6210194;28;20057;-82
2022/02/08 19:49:17;;;;;;;5.07;1.90;;;10.90;83.10;;;;;;6211040;28;20645;-83
2022/02/08 19:52:20;;;;;;;4.85;2.03;;;10.80;83.30;;;;;;6212836;28;20128;-83
2022/02/08 19:55:29;;;;;;;6.60;2.30;;;10.90;83.60;;;;;;6210576;28;20074;-82
2022/02/08 19:58:31;;;;;;;4.80;2.10;;;10.90;83.50;;;;;;6211374;28;20080;-82
2022/02/08 20:01:36;;;;;;;1.75;0.68;;;10.90;83.40;;;;;;6210256;28;20522;-82
2022/02/08 20:04:39;;;;;;;6.03;0.93;;;10.90;83.30;;;;;;6207856;28;20050;-81
2022/02/08 20:07:42;;;;;;;2.72;0.60;;;10.90;83.50;;;;;;6206284;28;20044;-84
2022/02/08 20:10:56;;;;;;;1.83;0.70;;;10.90;83.60;;;;;;6207617;28;20520;-82
2022/02/08 20:13:58;;;;;;;2.05;0.55;;;10.90;83.60;;;;;;6207559;28;20050;-83
2022/02/08 20:17:01;;;;;;;2.10;0.70;;;10.90;83.60;;;;;;6207921;28;20049;-82
2022/02/08 20:20:09;;;;;;;3.70;1.42;;;10.80;83.60;;;;;;6233373;28;20050;-82
2022/02/08 20:23:11;;;;;;;4.40;1.10;;;10.90;83.80;;;;;;6215687;28;20504;-82
2022/02/08 20:26:13;;;;;;;3.35;1.08;;;10.90;83.90;;;;;;6213987;28;20046;-83
2022/02/08 20:29:20;;;;;;;2.22;0.80;;;10.90;83.80;;;;;;6214190;28;20472;-81
2022/02/08 20:32:23;;;;;;;2.95;1.10;;;10.90;84.00;;;;;;6213376;28;20050;-82
2022/02/08 20:35:25;;;;;;;1.63;0.70;;;10.90;84.00;;;;;;6209620;28;20043;-82
2022/02/08 20:38:27;;;;;;;1.05;0.40;;;10.90;84.20;;;;;;6211166;28;20046;-82
2022/02/08 20:41:29;;;;;;;3.30;0.70;;;10.90;84.20;;;;;;6211873;28;20049;-83
2022/02/08 20:44:32;;;;;;;2.95;0.65;;;10.80;84.40;;;;;;6211922;28;20051;-83
2022/02/08 20:47:40;;;;;;;1.88;0.65;;;10.80;84.50;;;;;;6207365;28;20085;-82
2022/02/08 20:50:42;;;;;;;2.03;0.77;;;10.70;84.60;;;;;;6206197;28;20054;-82
2022/02/08 20:53:52;;;;;;;1.73;0.63;;;10.80;84.70;;;;;;6203079;28;20066;-82
2022/02/08 20:57:02;;;;;;;1.65;0.60;;;10.80;84.60;;;;;;6214473;28;20066;-82
2022/02/08 21:00:07;;;;;;;2.40;0.57;;;10.80;84.50;;;;;;6216162;28;20054;-82
2022/02/08 21:03:23;;;;;;;2.50;0.45;;;10.80;84.50;;;;;;6211439;28;20051;-83
2022/02/08 21:06:26;;;;;;;1.25;0.73;;;10.80;84.60;;;;;;6210782;28;20061;-80
2022/02/08 21:09:28;;;;;;;1.58;0.57;;;10.80;85.40;;;;;;6211275;28;20050;-82
2022/02/08 21:12:41;;;;;;;1.00;0.38;;;10.80;84.80;;;;;;6210524;28;20174;-82
2022/02/08 21:15:43;;;;;;;2.10;0.80;;;10.70;84.80;;;;;;6207861;28;20065;-82
2022/02/08 21:18:46;;;;;;;2.92;0.85;;;10.70;84.80;;;;;;6207649;28;20054;-82
2022/02/08 21:21:48;;;;;;;2.13;0.70;;;10.70;84.90;;;;;;6208465;28;20052;-82
2022/02/08 21:24:52;;;;;;;5.47;1.23;;;10.70;85.00;;;;;;6208627;28;20497;-82
2022/02/08 21:27:57;;;;;;;3.13;1.40;;;10.70;85.10;;;;;;6208598;28;20757;-81
2022/02/08 21:45:33;;;;;;;4.95;2.15;;;10.50;85.70;;;;;;6211241;28;20054;-82
2022/02/08 21:47:58;;;;;;;4.35;1.55;;;10.50;86.00;;;;;;6207494;28;20042;-82
2022/02/08 21:51:19;;;;;;;3.28;1.55;;;10.50;86.00;;;;;;6207839;28;20046;-82
2022/02/08 21:54:28;;;;;;;5.82;1.80;;;10.60;86.10;;;;;;6208509;28;20053;-81
2022/02/08 21:57:41;;;;;;;4.68;1.35;;;10.50;85.90;;;;;;6207203;28;20057;-81
2022/02/08 22:00:45;;;;;;;3.30;1.63;;;10.60;85.90;;;;;;6208258;28;20054;-81
2022/02/08 22:03:47;;;;;;;3.83;1.60;;;10.60;85.70;;;;;;6210291;28;20043;-81